sensor_id;sensor_type;location;lat;lon;timestamp;P1;durP1;ratioP1;P2;durP2;ratioP2
69985;SDS011;57328;52.054;5.294;2023-04-15T00:02:17;10.23;;;4.07;;
69985;SDS011;57328;52.054;5.294;2023-04-15T00:04:45;14.50;;;3.72;;
69985;SDS011;57328;52.054;5.294;2023-04-15T00:07:13;10.07;;;4.88;;
69985;SDS011;57328;52.054;5.294;2023-04-15T00:09:41;8.10;;;4.53;;
69985;SDS011;57328;52.054;5.294;2023-04-15T00:12:10;11.93;;;4.40;;
69985;SDS011;57328;52.054;5.294;2023-04-15T00:14:37;11.73;;;4.10;;
69985;SDS011;57328;52.054;5.294;2023-04-15T00:17:05;8.60;;;4.10;;
69985;SDS011;57328;52.054;5.294;2023-04-15T00:19:32;10.10;;;4.30;;
69985;SDS011;57328;52.054;5.294;2023-04-15T00:21:59;10.07;;;4.60;;
69985;SDS011;57328;52.054;5.294;2023-04-15T00:24:27;10.85;;;5.00;;
69985;SDS011;57328;52.054;5.294;2023-04-15T00:26:54;10.07;;;4.82;;
69985;SDS011;57328;52.054;5.294;2023-04-15T00:29:21;8.75;;;4.22;;
69985;SDS011;57328;52.054;5.294;2023-04-15T00:31:49;11.07;;;4.38;;
69985;SDS011;57328;52.054;5.294;2023-04-15T00:34:16;11.65;;;5.00;;
69985;SDS011;57328;52.054;5.294;2023-04-15T00:36:43;15.52;;;5.05;;
69985;SDS011;57328;52.054;5.294;2023-04-15T00:39:10;10.68;;;4.50;;
69985;SDS011;57328;52.054;5.294;2023-04-15T00:41:38;16.20;;;5.40;;
69985;SDS011;57328;52.054;5.294;2023-04-15T00:44:05;17.08;;;5.53;;
69985;SDS011;57328;52.054;5.294;2023-04-15T00:46:34;14.15;;;6.00;;
69985;SDS011;57328;52.054;5.294;2023-04-15T00:49:03;13.77;;;5.40;;
69985;SDS011;57328;52.054;5.294;2023-04-15T00:51:31;14.77;;;6.13;;
69985;SDS011;57328;52.054;5.294;2023-04-15T00:54:02;15.38;;;6.50;;
69985;SDS011;57328;52.054;5.294;2023-04-15T00:56:29;14.13;;;5.88;;
69985;SDS011;57328;52.054;5.294;2023-04-15T00:58:57;15.95;;;6.20;;
69985;SDS011;57328;52.054;5.294;2023-04-15T01:01:25;15.18;;;6.13;;
69985;SDS011;57328;52.054;5.294;2023-04-15T01:03:53;14.20;;;6.13;;
69985;SDS011;57328;52.054;5.294;2023-04-15T01:06:21;14.02;;;5.90;;
69985;SDS011;57328;52.054;5.294;2023-04-15T01:08:48;16.42;;;5.38;;
69985;SDS011;57328;52.054;5.294;2023-04-15T01:11:16;12.13;;;5.63;;
69985;SDS011;57328;52.054;5.294;2023-04-15T01:13:43;11.05;;;5.28;;
69985;SDS011;57328;52.054;5.294;2023-04-15T01:16:10;12.70;;;4.82;;
69985;SDS011;57328;52.054;5.294;2023-04-15T01:18:38;16.63;;;5.50;;
69985;SDS011;57328;52.054;5.294;2023-04-15T01:21:05;12.27;;;5.28;;
69985;SDS011;57328;52.054;5.294;2023-04-15T01:23:34;11.38;;;5.43;;
69985;SDS011;57328;52.054;5.294;2023-04-15T01:26:03;13.02;;;4.85;;
69985;SDS011;57328;52.054;5.294;2023-04-15T01:28:30;13.52;;;5.03;;
69985;SDS011;57328;52.054;5.294;2023-04-15T01:31:07;9.75;;;3.85;;
69985;SDS011;57328;52.054;5.294;2023-04-15T01:33:35;10.13;;;4.40;;
69985;SDS011;57328;52.054;5.294;2023-04-15T01:36:03;7.95;;;3.33;;
69985;SDS011;57328;52.054;5.294;2023-04-15T01:38:31;12.40;;;5.00;;
69985;SDS011;57328;52.054;5.294;2023-04-15T01:40:59;13.77;;;5.05;;
69985;SDS011;57328;52.054;5.294;2023-04-15T01:43:26;10.48;;;4.35;;
69985;SDS011;57328;52.054;5.294;2023-04-15T01:45:54;12.15;;;5.05;;
69985;SDS011;57328;52.054;5.294;2023-04-15T01:48:21;12.30;;;4.93;;
69985;SDS011;57328;52.054;5.294;2023-04-15T01:50:49;12.50;;;5.68;;
69985;SDS011;57328;52.054;5.294;2023-04-15T01:53:17;12.93;;;5.57;;
69985;SDS011;57328;52.054;5.294;2023-04-15T01:55:44;10.10;;;3.90;;
69985;SDS011;57328;52.054;5.294;2023-04-15T01:58:12;11.13;;;5.03;;
69985;SDS011;57328;52.054;5.294;2023-04-15T02:00:39;12.18;;;5.20;;
69985;SDS011;57328;52.054;5.294;2023-04-15T02:03:06;11.80;;;5.22;;
69985;SDS011;57328;52.054;5.294;2023-04-15T02:05:34;11.32;;;5.22;;
69985;SDS011;57328;52.054;5.294;2023-04-15T02:08:01;10.85;;;4.65;;
69985;SDS011;57328;52.054;5.294;2023-04-15T02:10:29;10.98;;;4.97;;
69985;SDS011;57328;52.054;5.294;2023-04-15T02:12:56;9.63;;;5.32;;
69985;SDS011;57328;52.054;5.294;2023-04-15T02:15:23;11.55;;;5.30;;
69985;SDS011;57328;52.054;5.294;2023-04-15T02:21:13;14.48;;;5.00;;
69985;SDS011;57328;52.054;5.294;2023-04-15T02:23:40;11.18;;;4.82;;
69985;SDS011;57328;52.054;5.294;2023-04-15T02:26:09;11.18;;;4.43;;
69985;SDS011;57328;52.054;5.294;2023-04-15T02:28:37;15.05;;;3.88;;
69985;SDS011;57328;52.054;5.294;2023-04-15T02:31:04;16.63;;;5.50;;
69985;SDS011;57328;52.054;5.294;2023-04-15T02:33:32;8.93;;;4.05;;
69985;SDS011;57328;52.054;5.294;2023-04-15T02:35:59;11.90;;;4.80;;
69985;SDS011;57328;52.054;5.294;2023-04-15T02:38:26;10.68;;;4.95;;
69985;SDS011;57328;52.054;5.294;2023-04-15T02:40:54;10.90;;;4.93;;
69985;SDS011;57328;52.054;5.294;2023-04-15T02:43:22;12.75;;;5.47;;
69985;SDS011;57328;52.054;5.294;2023-04-15T02:45:49;11.55;;;5.25;;
69985;SDS011;57328;52.054;5.294;2023-04-15T02:48:17;10.05;;;5.10;;
69985;SDS011;57328;52.054;5.294;2023-04-15T02:50:45;11.98;;;4.55;;
69985;SDS011;57328;52.054;5.294;2023-04-15T02:53:13;11.80;;;4.82;;
69985;SDS011;57328;52.054;5.294;2023-04-15T02:55:40;10.80;;;4.45;;
69985;SDS011;57328;52.054;5.294;2023-04-15T02:58:08;11.75;;;4.90;;
69985;SDS011;57328;52.054;5.294;2023-04-15T03:00:35;11.55;;;4.82;;
69985;SDS011;57328;52.054;5.294;2023-04-15T03:03:03;10.60;;;4.95;;
69985;SDS011;57328;52.054;5.294;2023-04-15T03:05:31;8.77;;;4.15;;
69985;SDS011;57328;52.054;5.294;2023-04-15T03:07:58;16.63;;;5.63;;
69985;SDS011;57328;52.054;5.294;2023-04-15T03:10:26;8.95;;;4.45;;
69985;SDS011;57328;52.054;5.294;2023-04-15T03:12:53;11.05;;;4.90;;
69985;SDS011;57328;52.054;5.294;2023-04-15T03:15:21;9.55;;;4.88;;
69985;SDS011;57328;52.054;5.294;2023-04-15T03:17:48;12.85;;;5.13;;
69985;SDS011;57328;52.054;5.294;2023-04-15T03:20:15;8.80;;;3.75;;
69985;SDS011;57328;52.054;5.294;2023-04-15T03:22:43;11.30;;;5.32;;
69985;SDS011;57328;52.054;5.294;2023-04-15T03:25:10;12.15;;;4.43;;
69985;SDS011;57328;52.054;5.294;2023-04-15T03:27:37;12.20;;;5.07;;
69985;SDS011;57328;52.054;5.294;2023-04-15T03:30:05;12.15;;;4.40;;
69985;SDS011;57328;52.054;5.294;2023-04-15T03:32:33;11.63;;;5.20;;
69985;SDS011;57328;52.054;5.294;2023-04-15T03:35:00;9.57;;;4.50;;
69985;SDS011;57328;52.054;5.294;2023-04-15T03:37:27;10.65;;;5.05;;
69985;SDS011;57328;52.054;5.294;2023-04-15T03:39:55;9.13;;;3.88;;
69985;SDS011;57328;52.054;5.294;2023-04-15T03:42:22;10.32;;;4.30;;
69985;SDS011;57328;52.054;5.294;2023-04-15T03:44:49;7.28;;;3.47;;
69985;SDS011;57328;52.054;5.294;2023-04-15T03:47:17;11.65;;;4.82;;
69985;SDS011;57328;52.054;5.294;2023-04-15T03:49:44;11.27;;;4.82;;
69985;SDS011;57328;52.054;5.294;2023-04-15T03:52:11;10.77;;;5.05;;
69985;SDS011;57328;52.054;5.294;2023-04-15T03:54:39;11.80;;;5.00;;
69985;SDS011;57328;52.054;5.294;2023-04-15T03:57:06;12.50;;;5.43;;
69985;SDS011;57328;52.054;5.294;2023-04-15T03:59:33;13.25;;;5.40;;
69985;SDS011;57328;52.054;5.294;2023-04-15T04:02:00;12.48;;;5.03;;
69985;SDS011;57328;52.054;5.294;2023-04-15T04:04:28;9.70;;;4.70;;
69985;SDS011;57328;52.054;5.294;2023-04-15T04:06:55;12.40;;;4.90;;
69985;SDS011;57328;52.054;5.294;2023-04-15T04:09:22;13.93;;;4.85;;
69985;SDS011;57328;52.054;5.294;2023-04-15T04:11:50;12.50;;;5.38;;
69985;SDS011;57328;52.054;5.294;2023-04-15T04:14:17;7.28;;;3.38;;
69985;SDS011;57328;52.054;5.294;2023-04-15T04:16:44;11.88;;;5.05;;
69985;SDS011;57328;52.054;5.294;2023-04-15T04:19:11;9.02;;;4.35;;
69985;SDS011;57328;52.054;5.294;2023-04-15T04:21:40;15.18;;;5.78;;
69985;SDS011;57328;52.054;5.294;2023-04-15T04:24:07;11.02;;;4.82;;
69985;SDS011;57328;52.054;5.294;2023-04-15T04:26:34;12.07;;;5.53;;
69985;SDS011;57328;52.054;5.294;2023-04-15T04:29:01;10.57;;;4.32;;
69985;SDS011;57328;52.054;5.294;2023-04-15T04:31:29;10.57;;;4.22;;
69985;SDS011;57328;52.054;5.294;2023-04-15T04:33:56;11.20;;;4.93;;
69985;SDS011;57328;52.054;5.294;2023-04-15T04:36:23;11.57;;;4.88;;
69985;SDS011;57328;52.054;5.294;2023-04-15T04:38:51;9.65;;;5.15;;
69985;SDS011;57328;52.054;5.294;2023-04-15T04:41:18;12.68;;;5.53;;
69985;SDS011;57328;52.054;5.294;2023-04-15T04:43:46;9.95;;;4.57;;
69985;SDS011;57328;52.054;5.294;2023-04-15T04:46:13;13.88;;;6.00;;
69985;SDS011;57328;52.054;5.294;2023-04-15T04:48:40;12.50;;;5.28;;
69985;SDS011;57328;52.054;5.294;2023-04-15T04:51:08;14.60;;;5.63;;
69985;SDS011;57328;52.054;5.294;2023-04-15T04:53:35;9.95;;;4.30;;
69985;SDS011;57328;52.054;5.294;2023-04-15T04:56:03;12.50;;;5.28;;
69985;SDS011;57328;52.054;5.294;2023-04-15T04:58:30;9.70;;;4.68;;
69985;SDS011;57328;52.054;5.294;2023-04-15T05:00:57;13.00;;;4.97;;
69985;SDS011;57328;52.054;5.294;2023-04-15T05:03:24;10.48;;;5.00;;
69985;SDS011;57328;52.054;5.294;2023-04-15T05:05:52;9.30;;;4.13;;
69985;SDS011;57328;52.054;5.294;2023-04-15T05:08:20;14.05;;;5.70;;
69985;SDS011;57328;52.054;5.294;2023-04-15T05:10:47;12.98;;;6.35;;
69985;SDS011;57328;52.054;5.294;2023-04-15T05:13:14;15.18;;;5.68;;
69985;SDS011;57328;52.054;5.294;2023-04-15T05:15:41;13.60;;;5.60;;
69985;SDS011;57328;52.054;5.294;2023-04-15T05:18:10;10.98;;;5.63;;
69985;SDS011;57328;52.054;5.294;2023-04-15T05:20:37;12.90;;;5.95;;
69985;SDS011;57328;52.054;5.294;2023-04-15T05:23:04;13.77;;;5.78;;
69985;SDS011;57328;52.054;5.294;2023-04-15T05:31:48;10.18;;;4.45;;
69985;SDS011;57328;52.054;5.294;2023-04-15T05:34:15;11.38;;;5.47;;
69985;SDS011;57328;52.054;5.294;2023-04-15T05:36:43;8.45;;;4.28;;
69985;SDS011;57328;52.054;5.294;2023-04-15T05:39:10;12.32;;;4.72;;
69985;SDS011;57328;52.054;5.294;2023-04-15T05:41:37;11.88;;;5.65;;
69985;SDS011;57328;52.054;5.294;2023-04-15T05:44:05;14.57;;;4.63;;
69985;SDS011;57328;52.054;5.294;2023-04-15T05:46:32;13.30;;;5.47;;
69985;SDS011;57328;52.054;5.294;2023-04-15T05:48:59;10.45;;;5.20;;
69985;SDS011;57328;52.054;5.294;2023-04-15T05:51:27;11.55;;;5.78;;
69985;SDS011;57328;52.054;5.294;2023-04-15T05:53:54;14.85;;;6.13;;
69985;SDS011;57328;52.054;5.294;2023-04-15T05:56:21;15.95;;;5.75;;
69985;SDS011;57328;52.054;5.294;2023-04-15T05:58:48;14.77;;;4.40;;
69985;SDS011;57328;52.054;5.294;2023-04-15T06:01:18;9.68;;;4.07;;
69985;SDS011;57328;52.054;5.294;2023-04-15T06:03:46;13.35;;;5.50;;
69985;SDS011;57328;52.054;5.294;2023-04-15T06:06:14;8.82;;;3.90;;
69985;SDS011;57328;52.054;5.294;2023-04-15T06:08:41;10.27;;;4.93;;
69985;SDS011;57328;52.054;5.294;2023-04-15T06:11:08;10.60;;;4.50;;
69985;SDS011;57328;52.054;5.294;2023-04-15T06:13:35;9.73;;;4.63;;
69985;SDS011;57328;52.054;5.294;2023-04-15T06:16:03;11.80;;;5.15;;
69985;SDS011;57328;52.054;5.294;2023-04-15T06:18:30;8.98;;;4.22;;
69985;SDS011;57328;52.054;5.294;2023-04-15T06:20:57;14.25;;;6.20;;
69985;SDS011;57328;52.054;5.294;2023-04-15T06:23:25;11.77;;;5.45;;
69985;SDS011;57328;52.054;5.294;2023-04-15T06:25:53;12.07;;;5.05;;
69985;SDS011;57328;52.054;5.294;2023-04-15T06:28:20;11.05;;;5.18;;
69985;SDS011;57328;52.054;5.294;2023-04-15T06:30:47;11.57;;;5.38;;
69985;SDS011;57328;52.054;5.294;2023-04-15T06:33:14;10.30;;;5.35;;
69985;SDS011;57328;52.054;5.294;2023-04-15T06:35:42;11.65;;;5.63;;
69985;SDS011;57328;52.054;5.294;2023-04-15T06:38:09;11.40;;;5.03;;
69985;SDS011;57328;52.054;5.294;2023-04-15T06:40:36;12.07;;;5.57;;
69985;SDS011;57328;52.054;5.294;2023-04-15T06:43:03;11.85;;;5.63;;
69985;SDS011;57328;52.054;5.294;2023-04-15T06:45:30;9.90;;;5.35;;
69985;SDS011;57328;52.054;5.294;2023-04-15T06:47:58;12.50;;;5.25;;
69985;SDS011;57328;52.054;5.294;2023-04-15T06:50:25;12.73;;;5.90;;
69985;SDS011;57328;52.054;5.294;2023-04-15T06:52:53;11.77;;;5.22;;
69985;SDS011;57328;52.054;5.294;2023-04-15T06:55:20;11.48;;;5.28;;
69985;SDS011;57328;52.054;5.294;2023-04-15T06:57:47;12.68;;;5.78;;
69985;SDS011;57328;52.054;5.294;2023-04-15T07:00:15;9.77;;;5.38;;
69985;SDS011;57328;52.054;5.294;2023-04-15T07:02:43;10.95;;;5.38;;
69985;SDS011;57328;52.054;5.294;2023-04-15T07:05:10;10.40;;;5.45;;
69985;SDS011;57328;52.054;5.294;2023-04-15T07:07:37;11.48;;;5.80;;
69985;SDS011;57328;52.054;5.294;2023-04-15T07:10:05;12.40;;;5.95;;
69985;SDS011;57328;52.054;5.294;2023-04-15T07:12:32;10.35;;;5.35;;
69985;SDS011;57328;52.054;5.294;2023-04-15T07:15:01;10.55;;;5.32;;
69985;SDS011;57328;52.054;5.294;2023-04-15T07:17:28;10.15;;;5.40;;
69985;SDS011;57328;52.054;5.294;2023-04-15T07:19:56;13.00;;;6.60;;
69985;SDS011;57328;52.054;5.294;2023-04-15T07:22:23;12.27;;;5.43;;
69985;SDS011;57328;52.054;5.294;2023-04-15T07:24:51;10.48;;;5.78;;
69985;SDS011;57328;52.054;5.294;2023-04-15T07:27:18;11.10;;;5.38;;
69985;SDS011;57328;52.054;5.294;2023-04-15T07:29:46;9.75;;;4.20;;
69985;SDS011;57328;52.054;5.294;2023-04-15T07:32:14;12.27;;;5.78;;
69985;SDS011;57328;52.054;5.294;2023-04-15T07:34:41;11.88;;;5.35;;
69985;SDS011;57328;52.054;5.294;2023-04-15T07:37:09;14.48;;;4.53;;
69985;SDS011;57328;52.054;5.294;2023-04-15T07:39:36;9.95;;;4.85;;
69985;SDS011;57328;52.054;5.294;2023-04-15T07:42:03;12.05;;;4.90;;
69985;SDS011;57328;52.054;5.294;2023-04-15T07:44:31;7.68;;;3.70;;
69985;SDS011;57328;52.054;5.294;2023-04-15T07:46:58;9.07;;;4.38;;
69985;SDS011;57328;52.054;5.294;2023-04-15T07:49:25;8.82;;;3.80;;
69985;SDS011;57328;52.054;5.294;2023-04-15T07:51:52;9.00;;;4.32;;
69985;SDS011;57328;52.054;5.294;2023-04-15T07:54:20;8.07;;;4.28;;
69985;SDS011;57328;52.054;5.294;2023-04-15T07:56:47;10.85;;;4.70;;
69985;SDS011;57328;52.054;5.294;2023-04-15T07:59:14;7.85;;;4.50;;
69985;SDS011;57328;52.054;5.294;2023-04-15T08:04:10;9.05;;;3.83;;
69985;SDS011;57328;52.054;5.294;2023-04-15T08:06:37;10.45;;;3.80;;
69985;SDS011;57328;52.054;5.294;2023-04-15T08:09:05;7.05;;;3.67;;
69985;SDS011;57328;52.054;5.294;2023-04-15T08:11:33;11.60;;;4.00;;
69985;SDS011;57328;52.054;5.294;2023-04-15T08:14:01;7.35;;;3.60;;
69985;SDS011;57328;52.054;5.294;2023-04-15T08:16:28;7.55;;;3.88;;
69985;SDS011;57328;52.054;5.294;2023-04-15T08:18:56;8.48;;;3.60;;
69985;SDS011;57328;52.054;5.294;2023-04-15T08:21:23;6.82;;;3.05;;
69985;SDS011;57328;52.054;5.294;2023-04-15T08:23:51;9.40;;;3.80;;
69985;SDS011;57328;52.054;5.294;2023-04-15T08:26:19;8.52;;;3.58;;
69985;SDS011;57328;52.054;5.294;2023-04-15T08:28:46;7.03;;;3.20;;
69985;SDS011;57328;52.054;5.294;2023-04-15T08:31:14;5.53;;;2.67;;
69985;SDS011;57328;52.054;5.294;2023-04-15T08:33:42;10.30;;;3.78;;
69985;SDS011;57328;52.054;5.294;2023-04-15T08:36:09;7.88;;;3.40;;
69985;SDS011;57328;52.054;5.294;2023-04-15T08:38:37;8.95;;;3.03;;
69985;SDS011;57328;52.054;5.294;2023-04-15T08:41:38;6.90;;;3.28;;
69985;SDS011;57328;52.054;5.294;2023-04-15T08:44:03;7.00;;;2.95;;
69985;SDS011;57328;52.054;5.294;2023-04-15T08:46:31;5.50;;;2.55;;
69985;SDS011;57328;52.054;5.294;2023-04-15T08:49:04;5.97;;;2.72;;
69985;SDS011;57328;52.054;5.294;2023-04-15T08:51:35;5.68;;;2.58;;
69985;SDS011;57328;52.054;5.294;2023-04-15T08:54:02;3.72;;;1.90;;
69985;SDS011;57328;52.054;5.294;2023-04-15T08:56:30;5.68;;;2.33;;
69985;SDS011;57328;52.054;5.294;2023-04-15T08:58:58;7.43;;;2.58;;
69985;SDS011;57328;52.054;5.294;2023-04-15T09:01:26;5.00;;;2.35;;
69985;SDS011;57328;52.054;5.294;2023-04-15T09:03:53;5.25;;;2.40;;
69985;SDS011;57328;52.054;5.294;2023-04-15T09:06:22;5.47;;;2.35;;
69985;SDS011;57328;52.054;5.294;2023-04-15T09:08:49;5.05;;;1.92;;
69985;SDS011;57328;52.054;5.294;2023-04-15T09:11:17;4.07;;;2.08;;
69985;SDS011;57328;52.054;5.294;2023-04-15T09:13:45;7.00;;;2.55;;
69985;SDS011;57328;52.054;5.294;2023-04-15T09:22:40;4.70;;;2.22;;
69985;SDS011;57328;52.054;5.294;2023-04-15T09:27:50;6.22;;;2.42;;
69985;SDS011;57328;52.054;5.294;2023-04-15T09:30:18;4.97;;;2.40;;
69985;SDS011;57328;52.054;5.294;2023-04-15T09:32:51;9.02;;;2.78;;
69985;SDS011;57328;52.054;5.294;2023-04-15T09:35:19;7.65;;;2.80;;
69985;SDS011;57328;52.054;5.294;2023-04-15T09:37:50;5.60;;;2.60;;
69985;SDS011;57328;52.054;5.294;2023-04-15T09:41:00;3.50;;;1.65;;
69985;SDS011;57328;52.054;5.294;2023-04-15T09:43:09;4.35;;;1.73;;
69985;SDS011;57328;52.054;5.294;2023-04-15T09:45:40;3.15;;;1.45;;
69985;SDS011;57328;52.054;5.294;2023-04-15T09:48:20;6.53;;;1.77;;
69985;SDS011;57328;52.054;5.294;2023-04-15T09:50:48;3.45;;;1.50;;
69985;SDS011;57328;52.054;5.294;2023-04-15T09:53:17;3.92;;;1.77;;
69985;SDS011;57328;52.054;5.294;2023-04-15T09:55:45;5.78;;;1.85;;
69985;SDS011;57328;52.054;5.294;2023-04-15T09:58:54;4.82;;;2.17;;
69985;SDS011;57328;52.054;5.294;2023-04-15T10:01:06;5.20;;;1.80;;
69985;SDS011;57328;52.054;5.294;2023-04-15T10:03:36;4.95;;;1.90;;
69985;SDS011;57328;52.054;5.294;2023-04-15T10:06:07;4.75;;;1.98;;
69985;SDS011;57328;52.054;5.294;2023-04-15T10:08:35;4.80;;;1.77;;
69985;SDS011;57328;52.054;5.294;2023-04-15T10:11:02;6.38;;;2.42;;
69985;SDS011;57328;52.054;5.294;2023-04-15T10:13:30;7.90;;;2.83;;
69985;SDS011;57328;52.054;5.294;2023-04-15T10:16:04;5.70;;;1.75;;
69985;SDS011;57328;52.054;5.294;2023-04-15T10:18:34;5.28;;;1.90;;
69985;SDS011;57328;52.054;5.294;2023-04-15T10:21:02;6.25;;;2.58;;
69985;SDS011;57328;52.054;5.294;2023-04-15T10:23:31;4.07;;;1.80;;
69985;SDS011;57328;52.054;5.294;2023-04-15T10:25:58;4.13;;;2.00;;
69985;SDS011;57328;52.054;5.294;2023-04-15T10:28:26;7.50;;;2.35;;
69985;SDS011;57328;52.054;5.294;2023-04-15T10:30:53;4.38;;;1.95;;
69985;SDS011;57328;52.054;5.294;2023-04-15T10:33:22;5.05;;;2.22;;
69985;SDS011;57328;52.054;5.294;2023-04-15T10:35:50;5.45;;;2.65;;
69985;SDS011;57328;52.054;5.294;2023-04-15T10:43:47;6.55;;;2.50;;
69985;SDS011;57328;52.054;5.294;2023-04-15T10:46:18;4.03;;;2.17;;
69985;SDS011;57328;52.054;5.294;2023-04-15T10:48:49;5.93;;;2.10;;
69985;SDS011;57328;52.054;5.294;2023-04-15T10:51:27;4.43;;;1.92;;
69985;SDS011;57328;52.054;5.294;2023-04-15T10:53:55;5.88;;;2.17;;
69985;SDS011;57328;52.054;5.294;2023-04-15T10:56:24;4.65;;;2.08;;
69985;SDS011;57328;52.054;5.294;2023-04-15T10:58:51;3.67;;;1.70;;
69985;SDS011;57328;52.054;5.294;2023-04-15T11:01:19;5.32;;;2.38;;
69985;SDS011;57328;52.054;5.294;2023-04-15T11:03:48;4.95;;;2.33;;
69985;SDS011;57328;52.054;5.294;2023-04-15T11:06:17;5.38;;;2.53;;
69985;SDS011;57328;52.054;5.294;2023-04-15T11:08:57;5.38;;;2.67;;
69985;SDS011;57328;52.054;5.294;2023-04-15T11:14:14;4.30;;;2.30;;
69985;SDS011;57328;52.054;5.294;2023-04-15T11:16:41;3.90;;;2.08;;
69985;SDS011;57328;52.054;5.294;2023-04-15T11:19:12;4.05;;;1.80;;
69985;SDS011;57328;52.054;5.294;2023-04-15T11:21:39;5.43;;;2.30;;
69985;SDS011;57328;52.054;5.294;2023-04-15T11:24:06;5.43;;;2.30;;
69985;SDS011;57328;52.054;5.294;2023-04-15T11:26:34;4.10;;;1.92;;
69985;SDS011;57328;52.054;5.294;2023-04-15T11:29:01;4.35;;;1.33;;
69985;SDS011;57328;52.054;5.294;2023-04-15T11:31:28;4.78;;;1.73;;
69985;SDS011;57328;52.054;5.294;2023-04-15T11:33:57;5.90;;;1.73;;
69985;SDS011;57328;52.054;5.294;2023-04-15T11:38:52;3.60;;;1.63;;
69985;SDS011;57328;52.054;5.294;2023-04-15T11:41:22;7.43;;;1.88;;
69985;SDS011;57328;52.054;5.294;2023-04-15T11:43:50;4.72;;;1.30;;
69985;SDS011;57328;52.054;5.294;2023-04-15T11:46:17;2.53;;;1.30;;
69985;SDS011;57328;52.054;5.294;2023-04-15T11:48:45;3.88;;;1.40;;
69985;SDS011;57328;52.054;5.294;2023-04-15T11:51:13;2.72;;;1.40;;
69985;SDS011;57328;52.054;5.294;2023-04-15T11:53:46;3.60;;;1.50;;
69985;SDS011;57328;52.054;5.294;2023-04-15T11:56:21;3.38;;;1.60;;
69985;SDS011;57328;52.054;5.294;2023-04-15T11:58:55;3.47;;;1.40;;
69985;SDS011;57328;52.054;5.294;2023-04-15T12:01:33;2.72;;;1.42;;
69985;SDS011;57328;52.054;5.294;2023-04-15T12:04:01;6.28;;;1.50;;
69985;SDS011;57328;52.054;5.294;2023-04-15T12:09:03;2.42;;;1.00;;
69985;SDS011;57328;52.054;5.294;2023-04-15T12:11:34;4.13;;;1.67;;
69985;SDS011;57328;52.054;5.294;2023-04-15T12:14:06;4.13;;;1.35;;
69985;SDS011;57328;52.054;5.294;2023-04-15T12:17:09;2.35;;;1.10;;
69985;SDS011;57328;52.054;5.294;2023-04-15T12:19:29;6.10;;;1.48;;
69985;SDS011;57328;52.054;5.294;2023-04-15T12:22:02;2.80;;;1.33;;
69985;SDS011;57328;52.054;5.294;2023-04-15T12:24:31;2.22;;;1.35;;
69985;SDS011;57328;52.054;5.294;2023-04-15T12:27:08;3.38;;;0.93;;
69985;SDS011;57328;52.054;5.294;2023-04-15T12:29:37;2.90;;;1.10;;
69985;SDS011;57328;52.054;5.294;2023-04-15T12:32:05;4.57;;;1.75;;
69985;SDS011;57328;52.054;5.294;2023-04-15T12:34:34;2.10;;;1.35;;
69985;SDS011;57328;52.054;5.294;2023-04-15T12:37:03;1.98;;;0.77;;
69985;SDS011;57328;52.054;5.294;2023-04-15T12:39:30;2.63;;;1.13;;
69985;SDS011;57328;52.054;5.294;2023-04-15T12:41:58;1.65;;;1.08;;
69985;SDS011;57328;52.054;5.294;2023-04-15T12:44:25;8.80;;;1.23;;
69985;SDS011;57328;52.054;5.294;2023-04-15T12:46:53;3.05;;;1.33;;
69985;SDS011;57328;52.054;5.294;2023-04-15T12:49:21;4.15;;;1.10;;
69985;SDS011;57328;52.054;5.294;2023-04-15T12:51:50;2.60;;;1.13;;
69985;SDS011;57328;52.054;5.294;2023-04-15T12:54:18;2.67;;;1.25;;
69985;SDS011;57328;52.054;5.294;2023-04-15T12:56:48;2.63;;;1.10;;
69985;SDS011;57328;52.054;5.294;2023-04-15T12:59:16;4.18;;;1.40;;
69985;SDS011;57328;52.054;5.294;2023-04-15T13:01:44;3.35;;;1.10;;
69985;SDS011;57328;52.054;5.294;2023-04-15T13:04:15;2.65;;;0.85;;
69985;SDS011;57328;52.054;5.294;2023-04-15T13:06:46;4.45;;;1.40;;
69985;SDS011;57328;52.054;5.294;2023-04-15T13:09:13;5.07;;;1.30;;
69985;SDS011;57328;52.054;5.294;2023-04-15T13:11:41;3.15;;;1.00;;
69985;SDS011;57328;52.054;5.294;2023-04-15T13:14:08;1.05;;;0.65;;
69985;SDS011;57328;52.054;5.294;2023-04-15T13:16:39;2.72;;;0.90;;
69985;SDS011;57328;52.054;5.294;2023-04-15T13:19:06;2.38;;;1.10;;
69985;SDS011;57328;52.054;5.294;2023-04-15T13:21:34;5.05;;;1.35;;
69985;SDS011;57328;52.054;5.294;2023-04-15T13:24:02;5.25;;;1.48;;
69985;SDS011;57328;52.054;5.294;2023-04-15T13:28:58;2.90;;;1.33;;
69985;SDS011;57328;52.054;5.294;2023-04-15T13:34:12;4.45;;;1.58;;
69985;SDS011;57328;52.054;5.294;2023-04-15T13:36:39;3.05;;;1.00;;
69985;SDS011;57328;52.054;5.294;2023-04-15T13:39:07;2.10;;;0.80;;
69985;SDS011;57328;52.054;5.294;2023-04-15T13:41:35;1.88;;;1.00;;
69985;SDS011;57328;52.054;5.294;2023-04-15T13:44:02;3.58;;;1.10;;
69985;SDS011;57328;52.054;5.294;2023-04-15T13:46:31;1.33;;;0.88;;
69985;SDS011;57328;52.054;5.294;2023-04-15T13:48:58;2.50;;;1.17;;
69985;SDS011;57328;52.054;5.294;2023-04-15T13:51:26;4.55;;;1.17;;
69985;SDS011;57328;52.054;5.294;2023-04-15T13:53:53;4.18;;;1.45;;
69985;SDS011;57328;52.054;5.294;2023-04-15T13:56:20;3.25;;;1.25;;
69985;SDS011;57328;52.054;5.294;2023-04-15T13:58:47;2.60;;;1.17;;
69985;SDS011;57328;52.054;5.294;2023-04-15T14:01:15;2.78;;;0.98;;
69985;SDS011;57328;52.054;5.294;2023-04-15T14:03:42;4.47;;;1.15;;
69985;SDS011;57328;52.054;5.294;2023-04-15T14:06:10;3.45;;;0.80;;
69985;SDS011;57328;52.054;5.294;2023-04-15T14:08:37;3.15;;;0.88;;
69985;SDS011;57328;52.054;5.294;2023-04-15T14:11:05;5.45;;;1.00;;
69985;SDS011;57328;52.054;5.294;2023-04-15T14:13:32;3.60;;;1.02;;
69985;SDS011;57328;52.054;5.294;2023-04-15T14:15:59;4.65;;;1.15;;
69985;SDS011;57328;52.054;5.294;2023-04-15T14:18:27;3.58;;;1.40;;
69985;SDS011;57328;52.054;5.294;2023-04-15T14:20:55;2.50;;;0.80;;
69985;SDS011;57328;52.054;5.294;2023-04-15T14:23:22;4.47;;;0.90;;
69985;SDS011;57328;52.054;5.294;2023-04-15T14:29:25;3.97;;;0.93;;
69985;SDS011;57328;52.054;5.294;2023-04-15T14:32:06;3.47;;;1.20;;
69985;SDS011;57328;52.054;5.294;2023-04-15T14:34:47;2.10;;;0.80;;
69985;SDS011;57328;52.054;5.294;2023-04-15T14:37:28;4.25;;;0.93;;
69985;SDS011;57328;52.054;5.294;2023-04-15T14:39:56;2.15;;;1.08;;
69985;SDS011;57328;52.054;5.294;2023-04-15T14:42:25;3.25;;;1.40;;
69985;SDS011;57328;52.054;5.294;2023-04-15T14:44:52;4.88;;;1.65;;
69985;SDS011;57328;52.054;5.294;2023-04-15T14:47:21;3.70;;;1.23;;
69985;SDS011;57328;52.054;5.294;2023-04-15T14:50:03;3.40;;;0.93;;
69985;SDS011;57328;52.054;5.294;2023-04-15T14:52:31;5.10;;;0.90;;
69985;SDS011;57328;52.054;5.294;2023-04-15T14:55:07;3.20;;;0.95;;
69985;SDS011;57328;52.054;5.294;2023-04-15T14:57:36;3.10;;;0.80;;
69985;SDS011;57328;52.054;5.294;2023-04-15T15:00:03;4.13;;;0.90;;
69985;SDS011;57328;52.054;5.294;2023-04-15T15:02:32;5.35;;;0.88;;
69985;SDS011;57328;52.054;5.294;2023-04-15T15:05:05;1.98;;;0.80;;
69985;SDS011;57328;52.054;5.294;2023-04-15T15:07:33;1.55;;;0.90;;
69985;SDS011;57328;52.054;5.294;2023-04-15T15:12:29;2.15;;;0.80;;
69985;SDS011;57328;52.054;5.294;2023-04-15T15:14:57;4.97;;;1.08;;
69985;SDS011;57328;52.054;5.294;2023-04-15T15:17:41;2.22;;;1.13;;
69985;SDS011;57328;52.054;5.294;2023-04-15T15:20:12;9.63;;;3.70;;
69985;SDS011;57328;52.054;5.294;2023-04-15T15:25:34;5.15;;;1.65;;
69985;SDS011;57328;52.054;5.294;2023-04-15T15:28:02;4.53;;;1.35;;
69985;SDS011;57328;52.054;5.294;2023-04-15T15:30:29;3.17;;;1.33;;
69985;SDS011;57328;52.054;5.294;2023-04-15T15:32:57;6.65;;;1.80;;
69985;SDS011;57328;52.054;5.294;2023-04-15T15:35:24;6.38;;;1.77;;
69985;SDS011;57328;52.054;5.294;2023-04-15T15:37:52;4.85;;;0.90;;
69985;SDS011;57328;52.054;5.294;2023-04-15T15:40:20;4.75;;;1.20;;